createdAt,value
2023-01-26T00:01:27.880Z,-0.07
2023-01-26T00:03:55.978Z,-0.10
2023-01-26T00:06:24.197Z,-0.09
2023-01-26T00:08:53.186Z,-0.11
2023-01-26T00:11:26.991Z,-0.12
2023-01-26T00:13:54.901Z,-0.14
2023-01-26T00:16:22.315Z,-0.16
2023-01-26T00:18:49.506Z,-0.16
2023-01-26T00:21:21.167Z,-0.13
2023-01-26T00:23:49.635Z,-0.09
2023-01-26T00:26:22.822Z,-0.09
2023-01-26T00:28:50.615Z,-0.11
2023-01-26T00:31:24.493Z,-0.14
2023-01-26T00:33:54.453Z,-0.13
2023-01-26T00:36:21.821Z,-0.12
2023-01-26T00:38:49.570Z,-0.10
2023-01-26T00:41:35.561Z,-0.05
2023-01-26T00:44:02.833Z,-0.00
2023-01-26T00:46:30.052Z,-0.01
2023-01-26T00:48:57.410Z,-0.01
2023-01-26T00:51:24.610Z,-0.01
2023-01-26T00:53:51.737Z,-0.02
2023-01-26T00:56:19.630Z,-0.03
2023-01-26T00:58:47.245Z,-0.03
2023-01-26T01:01:14.655Z,0.00
2023-01-26T01:03:42.954Z,0.03
2023-01-26T01:06:10.154Z,0.07
2023-01-26T01:08:37.304Z,0.09
2023-01-26T01:11:09.788Z,0.09
2023-01-26T01:13:37.391Z,0.12
2023-01-26T01:16:09.666Z,0.14
2023-01-26T01:18:37.186Z,0.11
2023-01-26T01:21:08.492Z,0.11
2023-01-26T01:23:36.724Z,0.09
2023-01-26T01:26:04.848Z,0.11
2023-01-26T01:28:33.613Z,0.12
2023-01-26T01:31:04.683Z,0.13
2023-01-26T01:33:32.009Z,0.13
2023-01-26T01:36:00.922Z,0.13
2023-01-26T01:38:28.510Z,0.13
2023-01-26T01:40:56.552Z,0.13
2023-01-26T01:43:28.612Z,0.12
2023-01-26T01:45:56.153Z,0.11
2023-01-26T01:48:44.657Z,0.15
2023-01-26T01:51:19.022Z,0.17
2023-01-26T01:53:50.704Z,0.19
2023-01-26T01:56:23.636Z,0.20
2023-01-26T01:58:54.047Z,0.17
2023-01-26T02:01:21.439Z,0.15
2023-01-26T02:03:52.624Z,0.14
2023-01-26T02:06:26.916Z,0.14
2023-01-26T02:08:57.213Z,0.15
2023-01-26T02:11:42.004Z,0.16
2023-01-26T02:14:12.123Z,0.21
2023-01-26T02:16:40.184Z,0.24
2023-01-26T02:19:37.202Z,0.23
2023-01-26T02:22:08.260Z,0.20
2023-01-26T02:24:40.105Z,0.16
2023-01-26T02:27:07.809Z,0.15
2023-01-26T02:29:35.095Z,0.17
2023-01-26T02:32:02.397Z,0.17
2023-01-26T02:34:29.520Z,0.18
2023-01-26T02:36:58.895Z,0.20
2023-01-26T02:39:45.256Z,0.22
2023-01-26T02:42:31.623Z,0.21
2023-01-26T02:44:58.867Z,0.19
2023-01-26T02:47:26.108Z,0.17
2023-01-26T02:49:53.382Z,0.17
2023-01-26T02:52:26.725Z,0.17
2023-01-26T02:55:16.822Z,0.18
2023-01-26T02:57:44.895Z,0.17
2023-01-26T03:00:17.790Z,0.15
2023-01-26T03:02:46.976Z,0.19
2023-01-26T03:05:14.316Z,0.22
2023-01-26T03:07:41.656Z,0.22
2023-01-26T03:10:10.467Z,0.22
2023-01-26T03:12:37.854Z,0.24
2023-01-26T03:15:24.778Z,0.25
2023-01-26T03:18:12.222Z,0.27
2023-01-26T03:21:14.940Z,0.31
2023-01-26T03:24:01.637Z,0.37
2023-01-26T03:26:48.472Z,0.42
2023-01-26T03:29:16.081Z,0.48
2023-01-26T03:31:43.823Z,0.50
2023-01-26T03:34:11.567Z,0.51
2023-01-26T03:36:39.123Z,0.51
2023-01-26T03:39:10.113Z,0.49
2023-01-26T03:41:55.914Z,0.48
2023-01-26T03:44:41.928Z,0.47
2023-01-26T03:47:27.959Z,0.46
2023-01-26T03:50:13.910Z,0.42
2023-01-26T03:52:59.901Z,0.38
2023-01-26T03:55:45.836Z,0.33
2023-01-26T03:58:13.049Z,0.31
2023-01-26T04:00:40.146Z,0.34
2023-01-26T04:03:26.261Z,0.36
2023-01-26T04:06:17.421Z,0.39
2023-01-26T04:08:48.288Z,0.38
2023-01-26T04:11:15.794Z,0.39
2023-01-26T04:14:02.119Z,0.40
2023-01-26T04:16:50.886Z,0.40
2023-01-26T04:19:36.752Z,0.40
2023-01-26T04:22:04.281Z,0.42
2023-01-26T04:24:33.633Z,0.44
2023-01-26T04:27:00.781Z,0.47
2023-01-26T04:29:37.194Z,0.49
2023-01-26T04:32:04.635Z,0.51
2023-01-26T04:34:33.192Z,0.53
2023-01-26T04:37:01.871Z,0.57
2023-01-26T04:39:41.173Z,0.60
2023-01-26T04:42:08.393Z,0.61
2023-01-26T04:44:35.587Z,0.67
2023-01-26T04:47:05.428Z,0.70
2023-01-26T04:49:33.583Z,0.74
2023-01-26T04:52:01.340Z,0.81
2023-01-26T04:54:29.469Z,0.87
2023-01-26T04:56:56.535Z,0.92
2023-01-26T04:59:23.711Z,0.93
2023-01-26T05:01:54.454Z,0.96
2023-01-26T05:04:21.783Z,0.97
2023-01-26T05:06:49.003Z,0.97
2023-01-26T05:09:16.131Z,0.99
2023-01-26T05:11:45.295Z,0.99
2023-01-26T05:14:35.082Z,0.97
2023-01-26T05:17:16.799Z,0.97
2023-01-26T05:20:17.725Z,0.99
2023-01-26T05:23:11.183Z,1.01
2023-01-26T05:26:01.079Z,1.07
2023-01-26T05:28:29.868Z,1.10
2023-01-26T05:30:57.206Z,1.09
2023-01-26T05:33:24.459Z,1.11
2023-01-26T05:35:53.099Z,1.13
2023-01-26T05:38:21.075Z,1.09
2023-01-26T05:40:48.672Z,1.04
2023-01-26T05:43:16.395Z,1.02
2023-01-26T05:46:02.533Z,0.98
2023-01-26T05:48:29.749Z,1.00
2023-01-26T05:50:58.697Z,1.03
2023-01-26T05:53:26.404Z,1.05
2023-01-26T05:55:54.268Z,1.11
2023-01-26T05:58:23.679Z,1.17
2023-01-26T06:00:51.460Z,1.19
2023-01-26T06:03:23.224Z,1.25
2023-01-26T06:05:54.979Z,1.30
2023-01-26T06:08:31.314Z,1.34
2023-01-26T06:11:18.317Z,1.37
2023-01-26T06:13:50.698Z,1.35
2023-01-26T06:16:23.264Z,1.34
2023-01-26T06:18:50.896Z,1.34
2023-01-26T06:21:18.423Z,1.37
2023-01-26T06:23:45.842Z,1.41
2023-01-26T06:26:14.052Z,1.44
2023-01-26T06:28:41.794Z,1.48
2023-01-26T06:31:10.896Z,1.51
2023-01-26T06:33:39.285Z,1.53
2023-01-26T06:36:10.405Z,1.54
2023-01-26T06:38:38.666Z,1.52
2023-01-26T06:41:07.850Z,1.51
2023-01-26T06:43:36.419Z,1.50
2023-01-26T06:46:05.124Z,1.50
2023-01-26T06:48:35.185Z,1.48
2023-01-26T06:51:44.654Z,1.47
2023-01-26T06:54:13.438Z,1.50
2023-01-26T06:57:00.884Z,1.51
2023-01-26T06:59:49.164Z,1.54
2023-01-26T07:02:31.433Z,1.58
2023-01-26T07:04:58.587Z,1.60
2023-01-26T07:07:25.691Z,1.60
2023-01-26T07:09:52.821Z,1.60
2023-01-26T07:12:20.001Z,1.62
2023-01-26T07:14:47.186Z,1.63
2023-01-26T07:17:14.328Z,1.61
2023-01-26T07:19:41.549Z,1.58
2023-01-26T07:22:09.061Z,1.53
2023-01-26T07:24:36.421Z,1.52
2023-01-26T07:27:03.658Z,1.55
2023-01-26T07:29:30.814Z,1.56
2023-01-26T07:31:57.951Z,1.54
2023-01-26T07:34:25.188Z,1.51
2023-01-26T07:36:53.152Z,1.49
2023-01-26T07:39:20.212Z,1.43
2023-01-26T07:41:47.900Z,1.43
2023-01-26T07:44:41.964Z,1.45
2023-01-26T07:47:09.133Z,1.46
2023-01-26T07:49:36.231Z,1.44
2023-01-26T07:52:04.813Z,1.40
2023-01-26T07:54:31.953Z,1.40
2023-01-26T07:56:59.938Z,1.40
2023-01-26T07:59:27.153Z,1.41
2023-01-26T08:01:54.410Z,1.43
2023-01-26T08:04:21.470Z,1.44
2023-01-26T08:06:51.797Z,1.46
2023-01-26T08:09:19.299Z,1.46
2023-01-26T08:11:46.408Z,1.42
2023-01-26T08:14:13.523Z,1.41
2023-01-26T08:16:40.879Z,1.41
2023-01-26T08:19:08.208Z,1.40
2023-01-26T08:21:36.205Z,1.41
2023-01-26T08:24:03.939Z,1.41
2023-01-26T08:26:31.095Z,1.43
2023-01-26T08:28:58.638Z,1.45
2023-01-26T08:31:25.926Z,1.48
2023-01-26T08:33:55.266Z,1.50
2023-01-26T08:36:23.222Z,1.51
2023-01-26T08:38:51.533Z,1.54
2023-01-26T08:41:19.118Z,1.55
2023-01-26T08:43:46.304Z,1.55
2023-01-26T08:46:13.579Z,1.54
2023-01-26T08:48:40.823Z,1.46
2023-01-26T08:51:08.586Z,1.39
2023-01-26T08:53:37.810Z,1.35
2023-01-26T08:56:07.271Z,1.36
2023-01-26T08:58:35.570Z,1.35
2023-01-26T09:01:07.008Z,1.33
2023-01-26T09:03:34.593Z,1.32
2023-01-26T09:06:04.380Z,1.35
2023-01-26T09:08:32.166Z,1.35
2023-01-26T09:10:59.783Z,1.29
2023-01-26T09:13:27.024Z,1.23
2023-01-26T09:15:54.511Z,1.20
2023-01-26T09:18:21.681Z,1.19
2023-01-26T09:20:51.275Z,1.21
2023-01-26T09:23:18.441Z,1.20
2023-01-26T09:25:45.630Z,1.19
2023-01-26T09:28:13.019Z,1.21
2023-01-26T09:30:40.246Z,1.19
2023-01-26T09:33:07.416Z,1.16
2023-01-26T09:35:34.548Z,1.12
2023-01-26T09:38:01.629Z,1.14
2023-01-26T09:41:04.768Z,1.12
2023-01-26T09:43:52.804Z,1.15
2023-01-26T09:46:26.834Z,1.19
2023-01-26T09:49:07.110Z,1.23
2023-01-26T09:51:38.922Z,1.25
2023-01-26T09:54:24.276Z,1.27
2023-01-26T09:56:51.412Z,1.25
2023-01-26T09:59:40.507Z,1.24
2023-01-26T10:02:20.548Z,1.27
2023-01-26T10:04:52.121Z,1.28
2023-01-26T10:07:20.524Z,1.23
2023-01-26T10:09:52.687Z,1.22
2023-01-26T10:12:23.322Z,1.24
2023-01-26T10:15:01.402Z,1.24
2023-01-26T10:17:42.245Z,1.22
2023-01-26T10:20:15.471Z,1.19
2023-01-26T10:22:47.275Z,1.18
2023-01-26T10:25:28.048Z,1.22
2023-01-26T10:27:55.398Z,1.21
2023-01-26T10:30:22.981Z,1.19
2023-01-26T10:32:53.613Z,1.14
2023-01-26T10:35:24.944Z,1.12
2023-01-26T10:37:53.268Z,1.12
2023-01-26T10:40:21.821Z,1.13
2023-01-26T10:43:01.420Z,1.15
2023-01-26T10:45:28.597Z,1.16
2023-01-26T10:48:16.102Z,1.22
2023-01-26T10:50:43.377Z,1.31
2023-01-26T10:53:19.047Z,1.39
2023-01-26T10:55:58.798Z,1.44
2023-01-26T10:58:47.792Z,1.41
2023-01-26T11:01:19.001Z,1.38
2023-01-26T11:04:14.942Z,1.39
2023-01-26T11:06:43.927Z,1.47
2023-01-26T11:09:20.046Z,1.50
2023-01-26T11:12:05.888Z,1.54
2023-01-26T11:14:34.853Z,1.54
2023-01-26T11:17:14.199Z,1.53
2023-01-26T11:19:51.369Z,1.54
2023-01-26T11:22:30.626Z,1.51
2023-01-26T11:25:14.671Z,1.48
2023-01-26T11:28:03.606Z,1.43
2023-01-26T11:30:36.171Z,1.38
2023-01-26T11:33:28.656Z,1.38
2023-01-26T11:36:01.923Z,1.37
2023-01-26T11:38:43.727Z,1.36
2023-01-26T11:41:18.377Z,1.34
2023-01-26T11:44:09.844Z,1.31
2023-01-26T11:47:10.860Z,1.28
2023-01-26T11:49:51.173Z,1.23
2023-01-26T11:52:23.984Z,1.21
2023-01-26T11:54:57.169Z,1.19
2023-01-26T11:57:43.213Z,1.17
2023-01-26T12:00:29.099Z,1.15
2023-01-26T12:03:04.809Z,1.12
2023-01-26T12:05:43.397Z,1.13
2023-01-26T12:08:38.444Z,1.18
2023-01-26T12:11:28.472Z,1.23
2023-01-26T12:14:17.508Z,1.25
2023-01-26T12:17:17.773Z,1.28
2023-01-26T12:19:51.612Z,1.32
2023-01-26T12:22:31.224Z,1.31
2023-01-26T12:25:19.388Z,1.31
2023-01-26T12:28:10.615Z,1.30
2023-01-26T12:30:46.934Z,1.34
2023-01-26T12:33:14.923Z,1.38
2023-01-26T12:36:07.858Z,1.36
2023-01-26T12:38:53.822Z,1.37
2023-01-26T12:41:36.897Z,1.41
2023-01-26T12:44:25.576Z,1.43
2023-01-26T12:46:58.601Z,1.43
2023-01-26T12:49:34.732Z,1.43
2023-01-26T12:52:08.647Z,1.46
2023-01-26T12:54:48.968Z,1.50
2023-01-26T12:57:21.801Z,1.52
2023-01-26T12:59:49.821Z,1.54
2023-01-26T13:02:17.119Z,1.56
2023-01-26T13:04:47.961Z,1.57
2023-01-26T13:07:38.786Z,1.58
2023-01-26T13:10:20.467Z,1.58
2023-01-26T13:12:56.625Z,1.58
2023-01-26T13:15:29.408Z,1.58
2023-01-26T13:18:01.780Z,1.57
2023-01-26T13:20:43.287Z,1.56
2023-01-26T13:23:28.854Z,1.58
2023-01-26T13:26:24.087Z,1.59
2023-01-26T13:28:52.587Z,1.60
2023-01-26T13:31:32.307Z,1.61
2023-01-26T13:34:08.016Z,1.61
2023-01-26T13:36:39.233Z,1.61
2023-01-26T13:39:15.366Z,1.63
2023-01-26T13:41:47.699Z,1.62
2023-01-26T13:44:21.342Z,1.60
2023-01-26T13:47:07.332Z,1.61
2023-01-26T13:49:37.464Z,1.65
2023-01-26T13:52:15.368Z,1.69
2023-01-26T13:54:44.271Z,1.72
2023-01-26T13:57:12.527Z,1.77
2023-01-26T13:59:51.320Z,1.78
2023-01-26T14:02:31.533Z,1.77
2023-01-26T14:04:59.524Z,1.79
2023-01-26T14:07:40.170Z,1.81
2023-01-26T14:10:15.382Z,1.81
2023-01-26T14:12:45.835Z,1.81
2023-01-26T14:15:33.543Z,1.78
2023-01-26T14:18:05.219Z,1.80
2023-01-26T14:20:38.155Z,1.83
2023-01-26T14:23:15.754Z,1.87
2023-01-26T14:25:56.493Z,1.91
2023-01-26T14:28:28.595Z,1.94
2023-01-26T14:31:02.291Z,1.95
2023-01-26T14:33:30.934Z,1.93
2023-01-26T14:36:03.608Z,1.93
2023-01-26T14:38:43.765Z,1.93
2023-01-26T14:41:21.845Z,1.93
2023-01-26T14:43:50.511Z,1.93
2023-01-26T14:46:23.545Z,1.93
2023-01-26T14:48:57.668Z,1.94
2023-01-26T14:51:26.702Z,1.96
2023-01-26T14:54:00.892Z,1.97
2023-01-26T14:56:39.642Z,2.00
2023-01-26T14:59:09.698Z,2.02
2023-01-26T15:01:36.963Z,2.02
2023-01-26T15:04:18.045Z,2.03
2023-01-26T15:06:45.217Z,2.05
2023-01-26T15:09:26.298Z,2.06
2023-01-26T15:12:17.671Z,2.06
2023-01-26T15:14:59.683Z,2.06
2023-01-26T15:17:29.499Z,2.05
2023-01-26T15:19:56.838Z,2.02
2023-01-26T15:22:26.413Z,1.99
2023-01-26T15:25:18.921Z,2.00
2023-01-26T15:28:00.323Z,2.02
2023-01-26T15:30:33.050Z,2.03
2023-01-26T15:33:00.840Z,2.05
2023-01-26T15:35:30.336Z,2.09
2023-01-26T15:38:03.572Z,2.10
2023-01-26T15:40:31.656Z,2.10
2023-01-26T15:43:24.905Z,2.10
2023-01-26T15:45:57.925Z,2.11
2023-01-26T15:48:26.861Z,2.11
2023-01-26T15:50:53.951Z,2.10
2023-01-26T15:53:22.299Z,2.08
2023-01-26T15:55:53.057Z,2.08
2023-01-26T15:58:20.254Z,2.10
2023-01-26T16:00:47.930Z,2.12
2023-01-26T16:03:17.771Z,2.13
2023-01-26T16:05:48.078Z,2.15
2023-01-26T16:08:16.965Z,2.16
2023-01-26T16:10:44.719Z,2.16
2023-01-26T16:13:14.819Z,2.18
2023-01-26T16:15:48.036Z,2.17
2023-01-26T16:18:15.551Z,2.16
2023-01-26T16:20:45.689Z,2.15
2023-01-26T16:23:24.917Z,2.13
2023-01-26T16:25:52.395Z,2.10
2023-01-26T16:28:19.997Z,2.10
2023-01-26T16:30:49.582Z,2.11
2023-01-26T16:33:21.221Z,2.13
2023-01-26T16:35:48.521Z,2.15
2023-01-26T16:38:15.817Z,2.16
2023-01-26T16:40:45.034Z,2.16
2023-01-26T16:43:21.416Z,2.18
2023-01-26T16:45:50.015Z,2.17
2023-01-26T16:48:17.181Z,2.15
2023-01-26T16:50:44.952Z,2.14
2023-01-26T16:53:22.167Z,2.13
2023-01-26T16:55:49.295Z,2.09
2023-01-26T16:58:16.581Z,2.08
2023-01-26T17:00:44.268Z,2.09
2023-01-26T17:03:13.195Z,2.10
2023-01-26T17:05:41.250Z,2.12
2023-01-26T17:08:08.557Z,2.15
2023-01-26T17:10:35.907Z,2.17
2023-01-26T17:13:03.112Z,2.18
2023-01-26T17:15:30.673Z,2.19
2023-01-26T17:17:58.134Z,2.19
2023-01-26T17:20:25.901Z,2.18
2023-01-26T17:22:53.476Z,2.16
2023-01-26T17:25:20.703Z,2.15
2023-01-26T17:27:49.924Z,2.13
2023-01-26T17:30:18.054Z,2.13
2023-01-26T17:32:45.436Z,2.13
2023-01-26T17:35:12.830Z,2.14
2023-01-26T17:37:40.557Z,2.16
2023-01-26T17:40:09.026Z,2.16
2023-01-26T17:42:36.543Z,2.18
2023-01-26T17:45:05.538Z,2.20
2023-01-26T17:47:33.763Z,2.20
2023-01-26T17:50:01.452Z,2.20
2023-01-26T17:52:28.681Z,2.20
2023-01-26T17:54:56.036Z,2.19
2023-01-26T17:57:24.054Z,2.18
2023-01-26T17:59:51.228Z,2.15
2023-01-26T18:02:18.354Z,2.15
2023-01-26T18:04:45.739Z,2.16
2023-01-26T18:07:12.863Z,2.17
2023-01-26T18:09:39.920Z,2.18
2023-01-26T18:12:07.191Z,2.20
2023-01-26T18:14:34.390Z,2.22
2023-01-26T18:17:01.509Z,2.24
2023-01-26T18:19:28.602Z,2.25
2023-01-26T18:21:55.712Z,2.25
2023-01-26T18:24:23.040Z,2.25
2023-01-26T18:26:50.637Z,2.24
2023-01-26T18:29:17.866Z,2.22
2023-01-26T18:31:45.150Z,2.20
2023-01-26T18:34:12.515Z,2.20
2023-01-26T18:36:39.640Z,2.21
2023-01-26T18:39:11.434Z,2.24
2023-01-26T18:41:40.844Z,2.26
2023-01-26T18:44:08.435Z,2.28
2023-01-26T18:46:35.748Z,2.28
2023-01-26T18:49:03.771Z,2.29
2023-01-26T18:51:34.565Z,2.30
2023-01-26T18:54:03.985Z,2.29
2023-01-26T18:56:31.513Z,2.27
2023-01-26T18:58:59.019Z,2.25
2023-01-26T19:01:26.913Z,2.23
2023-01-26T19:03:55.779Z,2.22
2023-01-26T19:06:24.573Z,2.21
2023-01-26T19:08:58.915Z,2.23
2023-01-26T19:11:28.629Z,2.25
2023-01-26T19:13:55.739Z,2.27
2023-01-26T19:16:23.482Z,2.30
2023-01-26T19:18:52.035Z,2.32
2023-01-26T19:21:24.614Z,2.33
2023-01-26T19:23:53.341Z,2.31
2023-01-26T19:26:26.369Z,2.30
2023-01-26T19:28:54.635Z,2.27
2023-01-26T19:31:22.586Z,2.24
2023-01-26T19:33:54.965Z,2.22
2023-01-26T19:36:22.533Z,2.22
2023-01-26T19:38:50.437Z,2.23
2023-01-26T19:41:18.851Z,2.24
2023-01-26T19:43:45.982Z,2.26
2023-01-26T19:46:15.160Z,2.29
2023-01-26T19:48:43.158Z,2.30
2023-01-26T19:51:15.012Z,2.32
2023-01-26T19:53:44.479Z,2.32
2023-01-26T19:56:19.307Z,2.31
2023-01-26T19:58:54.287Z,2.31
2023-01-26T20:01:22.441Z,2.30
2023-01-26T20:03:51.434Z,2.29
2023-01-26T20:06:20.924Z,2.28
2023-01-26T20:08:48.796Z,2.27
2023-01-26T20:11:16.968Z,2.26
2023-01-26T20:13:44.384Z,2.28
2023-01-26T20:16:13.871Z,2.30
2023-01-26T20:18:41.136Z,2.33
2023-01-26T20:21:08.317Z,2.36
2023-01-26T20:23:36.911Z,2.36
2023-01-26T20:26:07.164Z,2.35
2023-01-26T20:28:35.220Z,2.33
2023-01-26T20:31:11.284Z,2.30
2023-01-26T20:33:39.342Z,2.28
2023-01-26T20:36:09.706Z,2.26
2023-01-26T20:38:37.307Z,2.26
2023-01-26T20:41:13.401Z,2.28
2023-01-26T20:43:46.485Z,2.29
2023-01-26T20:46:24.818Z,2.30
2023-01-26T20:48:52.074Z,2.34
2023-01-26T20:51:21.577Z,2.36
2023-01-26T20:53:49.934Z,2.36
2023-01-26T20:56:19.725Z,2.36
2023-01-26T20:58:47.099Z,2.34
2023-01-26T21:01:17.960Z,2.32
2023-01-26T21:03:45.908Z,2.29
2023-01-26T21:06:15.931Z,2.28
2023-01-26T21:08:43.028Z,2.24
2023-01-26T21:11:13.325Z,2.23
2023-01-26T21:13:41.828Z,2.25
2023-01-26T21:16:11.007Z,2.26
2023-01-26T21:18:38.256Z,2.28
2023-01-26T21:21:07.534Z,2.31
2023-01-26T21:23:35.252Z,2.34
2023-01-26T21:26:05.218Z,2.35
2023-01-26T21:28:32.985Z,2.36
2023-01-26T21:31:05.166Z,2.35
2023-01-26T21:33:33.910Z,2.35
2023-01-26T21:36:02.895Z,2.34
2023-01-26T21:38:35.423Z,2.32
2023-01-26T21:41:03.782Z,2.30
2023-01-26T21:43:31.089Z,2.27
2023-01-26T21:45:59.182Z,2.26
2023-01-26T21:48:31.900Z,2.28
2023-01-26T21:51:17.983Z,2.29
2023-01-26T21:53:45.299Z,2.30
2023-01-26T21:56:14.794Z,2.29
2023-01-26T21:58:54.293Z,2.32
2023-01-26T22:01:22.366Z,2.34
2023-01-26T22:03:49.637Z,2.36
2023-01-26T22:06:17.557Z,2.36
2023-01-26T22:08:45.039Z,2.34
2023-01-26T22:11:14.792Z,2.33
2023-01-26T22:13:43.206Z,2.32
2023-01-26T22:16:10.507Z,2.30
2023-01-26T22:18:38.003Z,2.26
2023-01-26T22:21:06.325Z,2.26
2023-01-26T22:23:35.666Z,2.27
2023-01-26T22:26:06.815Z,2.28
2023-01-26T22:28:34.147Z,2.28
2023-01-26T22:31:03.493Z,2.29
2023-01-26T22:33:31.032Z,2.29
2023-01-26T22:36:05.673Z,2.29
2023-01-26T22:38:33.843Z,2.28
2023-01-26T22:41:02.162Z,2.27
2023-01-26T22:43:29.409Z,2.25
2023-01-26T22:46:02.816Z,2.23
2023-01-26T22:48:31.065Z,2.21
2023-01-26T22:50:59.115Z,2.18
2023-01-26T22:53:26.283Z,2.19
2023-01-26T22:55:53.427Z,2.20
2023-01-26T22:58:20.774Z,2.22
2023-01-26T23:00:47.895Z,2.22
2023-01-26T23:03:15.423Z,2.24
2023-01-26T23:05:42.525Z,2.26
2023-01-26T23:08:09.597Z,2.25
2023-01-26T23:10:37.673Z,2.26
2023-01-26T23:13:04.845Z,2.25
2023-01-26T23:15:32.022Z,2.23
2023-01-26T23:17:59.274Z,2.21
2023-01-26T23:20:26.499Z,2.20
2023-01-26T23:22:53.599Z,2.18
2023-01-26T23:25:39.983Z,2.15
2023-01-26T23:28:07.162Z,2.14
2023-01-26T23:30:34.336Z,2.16
2023-01-26T23:33:02.369Z,2.19
2023-01-26T23:35:29.452Z,2.23
2023-01-26T23:37:56.548Z,2.27
2023-01-26T23:40:23.708Z,2.30
2023-01-26T23:43:06.943Z,2.33
2023-01-26T23:45:37.918Z,2.35
2023-01-26T23:48:05.469Z,2.34
2023-01-26T23:50:32.698Z,2.31
2023-01-26T23:53:00.104Z,2.27
2023-01-26T23:55:27.499Z,2.24
2023-01-26T23:57:54.792Z,2.21
